Time;durP1;ratioP1;P1;durP2;ratioP2;P2;SDS_P1;SDS_P2;PMS_P1;PMS_P2;Temp;Humidity;BMP_temperature;BMP_pressure;BME280_temperature;BME280_humidity;BME280_pressure;Samples;Min_cycle;Max_cycle;Signal;HPM_P1;HPM_P2
2022/06/03 00:02:30;;;;;;;8.07;1.70;;;;;;;13.97;47.57;100179.50;10433047;28;20175;-78
2022/06/03 00:07:54;;;;;;;4.40;1.80;;;;;;;13.93;47.19;100166.69;10428514;28;20150;-78
2022/06/03 00:13:33;;;;;;;3.72;1.60;;;;;;;13.74;47.73;100167.09;10428475;28;20130;-78
2022/06/03 00:18:48;;;;;;;2.95;1.70;;;;;;;13.54;47.90;100165.00;10432028;28;20154;-77
2022/06/03 00:23:56;;;;;;;2.60;1.50;;;;;;;13.53;48.44;100168.59;10428914;28;20057;-78
2022/06/03 00:29:41;;;;;;;3.22;1.75;;;;;;;13.39;49.05;100166.84;10429470;28;20092;-78
2022/06/03 00:35:24;;;;;;;3.53;1.85;;;;;;;13.03;49.91;100164.06;10431531;28;20053;-78
2022/06/03 00:40:56;;;;;;;3.65;1.80;;;;;;;12.89;50.03;100154.47;10431473;28;20103;-77
2022/06/03 00:46:08;;;;;;;3.20;1.80;;;;;;;12.90;49.81;100153.53;10429076;28;20092;-77
2022/06/03 00:51:34;;;;;;;2.60;1.70;;;;;;;12.87;50.59;100147.66;10430780;28;20057;-78
2022/06/03 00:57:13;;;;;;;2.53;1.73;;;;;;;12.73;50.38;100140.69;10424579;28;20053;-78
2022/06/03 01:02:33;;;;;;;2.60;1.80;;;;;;;12.83;50.06;100141.75;10429064;28;20053;-77
2022/06/03 01:08:06;;;;;;;4.60;1.90;;;;;;;12.73;50.67;100148.56;10428995;28;20132;-78
2022/06/03 01:13:22;;;;;;;5.65;1.80;;;;;;;12.73;50.37;100139.84;10425982;28;20098;-77
2022/06/03 01:18:49;;;;;;;3.75;2.10;;;;;;;12.65;50.84;100142.97;10428172;28;20134;-77
2022/06/03 01:24:28;;;;;;;2.92;1.83;;;;;;;12.49;51.17;100152.75;10426814;28;20076;-76
2022/06/03 01:29:29;;;;;;;3.25;2.03;;;;;;;12.47;50.93;100148.56;10426598;28;20060;-77
2022/06/03 01:34:43;;;;;;;4.32;2.10;;;;;;;12.50;51.33;100148.34;10428904;28;20045;-77
2022/06/03 01:40:35;;;;;;;4.57;2.10;;;;;;;12.26;51.87;100155.13;10428681;28;20107;-77
2022/06/03 01:45:54;;;;;;;3.58;2.20;;;;;;;12.22;51.24;100158.88;10393990;28;20087;-77
2022/06/03 01:51:02;;;;;;;3.65;2.00;;;;;;;12.11;51.64;100157.75;10426981;28;20495;-77
2022/06/03 01:56:46;;;;;;;5.50;2.00;;;;;;;11.96;51.64;100157.88;10424206;28;20766;-77
2022/06/03 02:02:09;;;;;;;5.40;2.00;;;;;;;12.04;51.58;100153.00;10428188;28;20056;-77
2022/06/03 02:07:32;;;;;;;3.28;2.10;;;;;;;11.97;52.06;100146.44;10438775;28;20518;-77
2022/06/03 02:12:34;;;;;;;3.55;1.80;;;;;;;12.02;51.75;100141.78;10440496;28;21138;-77
2022/06/03 02:17:39;;;;;;;4.20;1.98;;;;;;;11.91;51.86;100138.97;10440736;28;20143;-77
2022/06/03 02:22:50;;;;;;;3.40;2.20;;;;;;;11.91;52.24;100146.81;10441261;28;20512;-78
2022/06/03 02:28:07;;;;;;;8.77;2.95;;;;;;;11.91;52.31;100146.81;10441154;28;20053;-78
2022/06/03 02:33:33;;;;;;;4.57;2.50;;;;;;;11.73;52.41;100147.94;10437929;28;20048;-78
2022/06/03 02:38:58;;;;;;;3.20;2.10;;;;;;;11.82;52.38;100134.31;10441913;28;20142;-78
2022/06/03 02:44:16;;;;;;;4.97;2.03;;;;;;;11.93;52.20;100132.69;10456516;28;20134;-76
2022/06/03 02:49:55;;;;;;;2.40;1.70;;;;;;;12.01;51.82;100129.59;10439778;28;20088;-77
2022/06/03 02:55:18;;;;;;;4.32;1.70;;;;;;;11.98;51.74;100127.19;10440030;28;20127;-77
2022/06/03 03:00:48;;;;;;;5.85;1.85;;;;;;;11.94;52.18;100134.41;10439010;28;20056;-77
2022/06/03 03:06:25;;;;;;;4.43;1.70;;;;;;;11.79;52.27;100135.31;10451002;28;20160;-77
2022/06/03 03:11:42;;;;;;;5.75;2.13;;;;;;;11.72;52.76;100128.75;10432900;28;20053;-77
2022/06/03 03:17:07;;;;;;;3.92;2.05;;;;;;;11.81;52.45;100132.59;10431063;28;20053;-76
2022/06/03 03:22:21;;;;;;;3.10;1.52;;;;;;;11.81;52.71;100132.59;10432595;28;20140;-77
2022/06/03 03:27:55;;;;;;;2.78;1.80;;;;;;;11.64;53.07;100135.44;10431890;28;20130;-77
2022/06/03 03:33:41;;;;;;;3.00;1.85;;;;;;;11.54;53.24;100127.25;10431295;28;20122;-77
2022/06/03 03:38:58;;;;;;;4.63;2.17;;;;;;;11.42;53.75;100119.34;10411062;28;20132;-77
2022/06/03 03:44:37;;;;;;;3.17;2.00;;;;;;;11.49;53.68;100111.00;10430915;28;20048;-76
2022/06/03 03:50:14;;;;;;;3.88;2.38;;;;;;;11.59;53.78;100117.38;10351435;28;20061;-77
2022/06/03 03:55:41;;;;;;;3.83;2.30;;;;;;;11.46;53.62;100112.97;10349501;28;20104;-77
2022/06/03 04:01:04;;;;;;;3.60;2.33;;;;;;;11.22;54.22;100108.25;10349744;28;20082;-77
2022/06/03 04:06:21;;;;;;;4.43;1.90;;;;;;;11.22;53.88;100108.25;10348974;28;20056;-77
2022/06/03 04:11:59;;;;;;;4.70;2.15;;;;;;;11.67;54.31;100099.41;10347202;28;20399;-77
2022/06/03 04:17:38;;;;;;;4.63;1.90;;;;;;;14.52;48.41;100077.31;10339977;28;20057;-78
2022/06/03 04:23:13;;;;;;;5.00;1.83;;;;;;;17.36;42.12;100070.31;10346632;28;20137;-78
2022/06/03 04:28:48;;;;;;;4.88;1.90;;;;;;;19.08;39.14;100065.38;10350754;28;20045;-79
2022/06/03 04:33:55;;;;;;;2.15;1.60;;;;;;;20.58;36.41;100075.59;10351897;28;20050;-79
2022/06/03 04:39:15;;;;;;;3.05;1.80;;;;;;;22.23;33.26;100067.34;10348894;28;20049;-79
2022/06/03 04:44:38;;;;;;;3.83;1.70;;;;;;;23.35;30.92;100055.91;10349268;28;20124;-79
2022/06/03 04:50:02;;;;;;;3.63;1.60;;;;;;;24.04;30.24;100051.69;10430632;28;20085;-78
2022/06/03 04:55:45;;;;;;;3.33;1.60;;;;;;;24.58;29.51;100047.19;10430290;28;20072;-79
2022/06/03 05:01:05;;;;;;;2.25;1.58;;;;;;;24.71;28.72;100052.78;10425890;28;20088;-79
2022/06/03 05:06:25;;;;;;;2.80;1.63;;;;;;;25.05;28.23;100047.84;10422788;28;20053;-78
2022/06/03 05:11:52;;;;;;;3.55;1.63;;;;;;;26.03;27.05;100038.56;10445075;28;20052;-79
2022/06/03 05:17:28;;;;;;;3.67;1.70;;;;;;;26.84;25.41;100034.66;10429610;28;20056;-79
2022/06/03 05:22:49;;;;;;;3.90;1.60;;;;;;;26.90;25.26;100032.03;10429856;28;20045;-79
2022/06/03 05:28:09;;;;;;;2.50;1.40;;;;;;;25.36;26.20;100029.81;10425121;28;20146;-79
2022/06/03 05:33:52;;;;;;;3.38;1.70;;;;;;;21.95;30.11;100041.09;10427931;28;20056;-79
2022/06/03 05:38:57;;;;;;;3.70;1.70;;;;;;;20.73;33.19;100044.00;10428518;28;20478;-79
2022/06/03 05:44:25;;;;;;;4.22;1.90;;;;;;;19.68;34.67;100036.72;10426983;28;20652;-79
2022/06/03 05:49:49;;;;;;;3.85;2.08;;;;;;;18.97;35.69;100031.03;10428125;28;20059;-79
2022/06/03 05:55:11;;;;;;;4.10;2.10;;;;;;;18.50;36.64;100031.94;10430569;28;20053;-78
2022/06/03 06:00:18;;;;;;;3.10;1.70;;;;;;;18.17;36.41;100029.63;10430586;28;20123;-77
2022/06/03 06:05:52;;;;;;;4.30;1.83;;;;;;;18.02;37.90;100029.19;10426715;28;20150;-78
2022/06/03 06:11:18;;;;;;;2.83;1.60;;;;;;;18.26;37.69;100023.56;10403241;28;20126;-78
2022/06/03 06:16:35;;;;;;;3.75;1.65;;;;;;;18.28;36.55;100029.56;10426498;28;20187;-78
2022/06/03 06:21:39;;;;;;;4.20;1.73;;;;;;;18.27;37.06;100027.88;10429090;28;20471;-78
2022/06/03 06:26:59;;;;;;;6.55;1.65;;;;;;;18.44;37.04;100029.84;10429602;28;20057;-78
2022/06/03 06:32:28;;;;;;;2.40;1.60;;;;;;;18.45;36.34;100028.84;10427416;28;20056;-78
2022/06/03 06:38:09;;;;;;;3.92;1.63;;;;;;;18.28;36.61;100030.38;10428166;28;20475;-78
2022/06/03 06:43:23;;;;;;;2.85;1.67;;;;;;;18.47;36.95;100029.56;10397862;28;20099;-79
2022/06/03 06:48:41;;;;;;;5.30;1.70;;;;;;;18.82;36.09;100024.53;10427580;28;20065;-78
2022/06/03 06:54:12;;;;;;;4.97;1.60;;;;;;;18.85;36.94;100018.91;10430569;28;20142;-77
2022/06/03 06:59:30;;;;;;;4.15;1.50;;;;;;;19.58;36.14;100014.69;10433706;28;20122;-78
2022/06/03 07:04:41;;;;;;;2.83;1.55;;;;;;;19.59;35.51;100011.88;10434772;28;20548;-77
2022/06/03 07:09:51;;;;;;;2.80;1.50;;;;;;;20.37;34.07;100008.63;10436590;28;20114;-78
2022/06/03 07:14:58;;;;;;;5.28;1.75;;;;;;;21.37;33.21;99999.28;10435103;28;20053;-78
2022/06/03 07:20:05;;;;;;;4.05;1.50;;;;;;;22.92;30.83;99996.81;10431497;28;20140;-78
2022/06/03 07:25:19;;;;;;;6.07;1.73;;;;;;;24.49;28.77;99984.91;10431355;28;20098;-78
2022/06/03 07:30:33;;;;;;;2.50;1.45;;;;;;;25.44;27.71;99978.03;10447508;28;20060;-78
2022/06/03 07:35:44;;;;;;;2.72;1.50;;;;;;;26.69;26.43;99960.44;10431582;28;22134;-78
2022/06/03 07:40:56;;;;;;;2.90;1.50;;;;;;;27.11;24.89;99954.16;10425013;28;20812;-78
2022/06/03 07:46:20;;;;;;;3.88;1.45;;;;;;;26.58;25.19;99952.13;10429377;28;20065;-78
2022/06/03 07:51:32;;;;;;;5.97;1.60;;;;;;;26.85;25.24;99950.47;10426392;28;20156;-78
2022/06/03 07:56:37;;;;;;;1.98;1.30;;;;;;;27.31;25.33;99920.22;10425784;28;20609;-77
2022/06/03 08:01:43;;;;;;;2.95;1.52;;;;;;;27.52;24.28;99912.00;10427309;28;20107;-77
2022/06/03 08:12:05;;;;;;;3.63;1.40;;;;;;;26.96;25.09;99926.59;10427475;28;20478;-78
2022/06/03 08:17:09;;;;;;;5.40;1.52;;;;;;;27.47;24.07;99910.97;10424002;28;20080;-78
2022/06/03 08:22:14;;;;;;;3.42;1.50;;;;;;;26.76;25.18;99920.25;10424279;28;20186;-77
2022/06/03 08:27:36;;;;;;;6.57;1.80;;;;;;;27.15;23.96;99909.81;10427097;28;20057;-79
2022/06/03 08:32:57;;;;;;;2.40;1.20;;;;;;;27.00;24.73;99910.91;10423279;28;20076;-79
2022/06/03 08:38:18;;;;;;;4.45;1.60;;;;;;;26.41;24.82;99919.34;10425234;28;20056;-78
2022/06/03 08:43:52;;;;;;;4.60;1.50;;;;;;;26.64;25.09;99913.78;10423369;28;20127;-79
2022/06/03 08:49:10;;;;;;;3.00;1.40;;;;;;;26.63;25.09;99910.25;10414509;28;20057;-79
2022/06/03 08:54:27;;;;;;;3.22;1.60;;;;;;;25.97;25.70;99907.16;10428474;28;20068;-79
2022/06/03 08:59:38;;;;;;;6.22;1.70;;;;;;;26.57;25.74;99899.47;10433076;28;20453;-79
2022/06/03 09:04:47;;;;;;;4.43;1.38;;;;;;;26.67;25.81;99891.91;10426932;28;20135;-80
2022/06/03 09:10:27;;;;;;;3.15;1.77;;;;;;;26.38;25.25;99900.13;10429039;28;20912;-79
2022/06/03 09:15:48;;;;;;;3.27;1.60;;;;;;;26.32;26.11;99890.19;10422750;28;20134;-78
2022/06/03 09:21:14;;;;;;;4.00;1.30;;;;;;;26.12;26.27;99871.22;10426778;28;20045;-78
2022/06/03 09:26:30;;;;;;;3.17;1.40;;;;;;;26.06;26.52;99874.69;10416830;28;20135;-77
2022/06/03 09:31:35;;;;;;;5.63;1.60;;;;;;;26.43;26.41;99874.38;10415914;28;20103;-78
2022/06/03 09:36:37;;;;;;;2.85;1.50;;;;;;;25.66;26.91;99873.44;10421980;28;20622;-78
2022/06/03 09:41:43;;;;;;;5.05;1.65;;;;;;;25.95;26.83;99860.94;10410164;28;20166;-78
2022/06/03 09:46:58;;;;;;;3.75;1.50;;;;;;;25.89;26.58;99866.03;10419377;28;20533;-79
2022/06/03 09:52:07;;;;;;;3.10;1.60;;;;;;;25.81;27.22;99865.34;10423036;28;20057;-78
2022/06/03 09:57:15;;;;;;;3.38;1.50;;;;;;;26.62;26.95;99870.22;10424818;28;20061;-78
2022/06/03 10:02:17;;;;;;;5.43;1.63;;;;;;;26.11;27.21;99868.75;10422984;28;20730;-79
2022/06/03 10:07:20;;;;;;;3.53;1.50;;;;;;;26.03;27.30;99860.84;10422766;28;20048;-79
2022/06/03 10:12:50;;;;;;;3.38;1.58;;;;;;;26.12;26.88;99860.50;10425264;28;20077;-80
2022/06/03 10:17:54;;;;;;;;;;;;;;;26.10;27.36;99861.75;10407191;28;20421;-80
2022/06/03 10:22:59;;;;;;;3.78;1.63;;;;;;;25.94;27.97;99846.69;10405674;28;20672;-80
2022/06/03 10:28:06;;;;;;;2.70;1.40;;;;;;;26.07;28.30;99854.06;10411928;28;20198;-79
2022/06/03 10:33:19;;;;;;;5.05;1.60;;;;;;;26.81;27.29;99841.84;10419828;28;20045;-79
2022/06/03 10:38:22;;;;;;;3.13;1.52;;;;;;;26.97;27.35;99838.84;10416674;28;20063;-79
2022/06/03 10:43:25;;;;;;;5.57;1.58;;;;;;;26.51;27.99;99841.22;10422925;28;20116;-79
2022/06/03 10:48:29;;;;;;;5.32;1.50;;;;;;;25.67;28.87;99837.56;10420910;28;20057;-79
2022/06/03 11:04:27;;;;;;;8.85;1.70;;;;;;;25.21;30.14;99806.75;10428136;28;20159;-79
2022/06/03 11:09:30;;;;;;;7.05;2.20;;;;;;;25.81;29.58;99809.88;10431651;28;20510;-79
2022/06/03 11:14:35;;;;;;;4.47;1.88;;;;;;;26.13;29.12;99805.88;10431118;28;20072;-79
2022/06/03 11:19:47;;;;;;;4.70;1.60;;;;;;;26.04;29.52;99793.63;10430670;28;20077;-78
2022/06/03 11:25:12;;;;;;;4.95;1.58;;;;;;;26.31;29.92;99792.81;10420928;28;20749;-77
2022/06/03 11:30:46;;;;;;;5.03;1.60;;;;;;;26.58;29.06;99788.47;10429550;28;20162;-77
2022/06/03 11:35:57;;;;;;;3.60;1.60;;;;;;;26.96;28.68;99776.28;10431738;28;20060;-78
2022/06/03 11:41:06;;;;;;;2.72;1.50;;;;;;;27.00;28.81;99779.38;10429654;28;20135;-78
2022/06/03 11:46:13;;;;;;;6.10;1.70;;;;;;;26.89;28.73;99767.38;10422876;28;20081;-79
2022/06/03 11:51:16;;;;;;;6.67;1.80;;;;;;;26.73;29.65;99767.69;10435291;28;20048;-79
2022/06/03 11:56:21;;;;;;;5.90;1.80;;;;;;;26.69;28.89;99767.28;10433515;28;20083;-79
2022/06/03 12:01:39;;;;;;;4.68;1.92;;;;;;;26.93;29.69;99765.97;10424029;28;20053;-79
2022/06/03 12:07:12;;;;;;;7.00;1.77;;;;;;;26.59;29.52;99765.97;10450808;28;20136;-79
2022/06/03 12:18:07;;;;;;;3.22;1.70;;;;;;;26.88;29.38;99754.97;10435015;28;20119;-79
2022/06/03 12:23:12;;;;;;;5.25;1.77;;;;;;;26.81;29.89;99746.09;10431199;28;20053;-78
2022/06/03 12:28:31;;;;;;;4.47;1.95;;;;;;;26.79;30.08;99758.03;10428151;28;20096;-78
2022/06/03 12:33:57;;;;;;;5.63;1.80;;;;;;;26.59;30.59;99745.34;10441456;28;20052;-79
2022/06/03 12:39:07;;;;;;;2.42;1.63;;;;;;;27.23;29.97;99755.75;10427074;28;20076;-78
2022/06/03 12:44:34;;;;;;;5.00;1.98;;;;;;;26.66;29.72;99748.06;10427231;28;20545;-78
2022/06/03 12:49:37;;;;;;;3.65;1.88;;;;;;;26.60;30.46;99754.22;10422436;28;20060;-78
2022/06/03 12:54:56;;;;;;;5.30;2.05;;;;;;;26.54;30.81;99757.69;10427607;28;20045;-78
2022/06/03 13:00:13;;;;;;;5.45;1.92;;;;;;;26.89;30.03;99742.41;10425608;28;20056;-78
2022/06/03 13:05:27;;;;;;;6.20;1.80;;;;;;;27.27;29.88;99740.88;10424693;28;21038;-79
2022/06/03 13:10:51;;;;;;;5.00;2.00;;;;;;;27.27;29.84;99739.03;10422757;28;20110;-78
2022/06/03 13:15:54;;;;;;;3.70;1.90;;;;;;;27.30;30.53;99738.59;10423186;28;20045;-79
2022/06/03 13:21:01;;;;;;;3.40;1.90;;;;;;;27.58;30.20;99749.19;10425483;28;20049;-79
2022/06/03 13:26:22;;;;;;;6.65;1.85;;;;;;;27.52;30.40;99751.88;10426970;28;20080;-78
2022/06/03 13:31:39;;;;;;;7.55;2.20;;;;;;;27.26;30.33;99747.28;10426268;28;20892;-78
2022/06/03 13:43:08;;;;;;;4.32;1.70;;;;;;;27.52;30.33;99746.50;10425096;28;20040;-78
2022/06/03 13:48:33;;;;;;;4.05;1.83;;;;;;;27.71;30.20;99751.06;10428381;28;20053;-78
2022/06/03 13:53:35;;;;;;;4.85;1.90;;;;;;;27.67;30.01;99747.94;10426539;28;20084;-78
2022/06/03 13:58:43;;;;;;;3.50;1.92;;;;;;;27.90;30.43;99747.56;10422244;28;20498;-78
2022/06/03 14:03:58;;;;;;;3.25;1.70;;;;;;;27.59;30.67;99748.16;10441821;28;20059;-78
2022/06/03 14:09:19;;;;;;;3.72;1.80;;;;;;;27.73;30.25;99747.16;10438086;28;20604;-79
2022/06/03 14:14:40;;;;;;;3.45;1.83;;;;;;;27.88;31.03;99749.66;10445173;28;20052;-78
2022/06/03 14:20:07;;;;;;;5.80;1.80;;;;;;;27.89;30.77;99738.69;10435293;28;20150;-78
2022/06/03 14:25:18;;;;;;;3.83;1.80;;;;;;;28.00;30.91;99735.38;10438540;28;20080;-78
2022/06/03 14:30:57;;;;;;;4.22;2.00;;;;;;;28.00;30.91;99740.75;10440444;28;20557;-79
2022/06/03 14:42:30;;;;;;;3.38;1.90;;;;;;;28.46;30.71;99740.69;10433921;28;20409;-78
2022/06/03 14:47:39;;;;;;;7.57;2.08;;;;;;;28.46;30.04;99742.56;10435968;28;20638;-78
2022/06/03 14:52:41;;;;;;;;;;;;;;;28.22;30.56;99744.00;10435975;28;20463;-78
2022/06/03 14:58:02;;;;;;;4.38;1.80;;;;;;;28.18;30.98;99742.78;10435824;28;19975;-78
2022/06/03 15:03:32;;;;;;;3.53;1.80;;;;;;;28.42;30.72;99742.13;10433220;28;20057;-78
2022/06/03 15:08:38;;;;;;;6.57;1.65;;;;;;;28.67;30.18;99743.09;10436276;28;20361;-78
2022/06/03 15:13:47;;;;;;;3.63;1.77;;;;;;;28.59;30.77;99743.34;10426682;28;20064;-78
2022/06/03 15:18:50;;;;;;;4.75;1.98;;;;;;;28.74;30.44;99733.16;10424383;28;20517;-79
2022/06/03 15:23:57;;;;;;;7.55;1.98;;;;;;;28.44;31.06;99736.56;10428275;28;20469;-78
2022/06/03 15:29:06;;;;;;;6.00;2.08;;;;;;;28.33;31.28;99729.97;10427854;28;20052;-77
2022/06/03 15:34:12;;;;;;;4.10;1.85;;;;;;;28.24;31.72;99720.44;10425609;28;20044;-78
2022/06/03 15:39:28;;;;;;;6.72;1.90;;;;;;;28.07;31.38;99719.25;10426686;28;20056;-80
2022/06/03 15:44:41;;;;;;;5.13;1.98;;;;;;;27.94;31.72;99708.50;10426135;28;20601;-79
2022/06/03 15:50:00;;;;;;;3.88;1.90;;;;;;;27.82;32.13;99716.38;10425870;28;20453;-79
2022/06/03 15:55:02;;;;;;;4.13;1.90;;;;;;;27.71;32.16;99714.25;10444146;28;20076;-79
2022/06/03 16:00:34;;;;;;;5.32;1.83;;;;;;;27.86;31.83;99708.72;10428863;28;20103;-79
2022/06/03 16:05:47;;;;;;;3.55;2.08;;;;;;;27.74;31.70;99707.69;10427702;28;20143;-79
2022/06/03 16:11:13;;;;;;;5.03;1.98;;;;;;;27.55;32.24;99697.72;10428702;28;20056;-79
2022/06/03 16:16:18;;;;;;;8.00;2.08;;;;;;;27.40;33.15;99700.63;10414096;28;20824;-78
2022/06/03 16:21:48;;;;;;;6.53;1.95;;;;;;;27.21;33.52;99696.88;10413115;28;20057;-79
2022/06/03 16:27:08;;;;;;;5.00;2.10;;;;;;;26.99;33.76;99703.41;10414019;28;20135;-78
2022/06/03 16:32:28;;;;;;;4.40;1.90;;;;;;;26.80;33.78;99709.53;10413943;28;21516;-79
2022/06/03 16:37:34;;;;;;;3.40;2.00;;;;;;;26.76;34.02;99707.44;10418489;28;20099;-79
2022/06/03 16:43:13;;;;;;;3.88;1.88;;;;;;;26.59;33.88;99701.59;10416989;28;20153;-79
2022/06/03 16:48:40;;;;;;;14.40;2.60;;;;;;;26.65;34.45;99688.22;10412472;28;20495;-79
2022/06/03 16:53:43;;;;;;;3.78;1.98;;;;;;;26.71;34.54;99686.56;10408082;28;20704;-79
2022/06/03 16:58:51;;;;;;;6.20;2.10;;;;;;;26.81;34.56;99679.00;10409899;28;20142;-78
2022/06/03 17:03:56;;;;;;;6.10;2.23;;;;;;;26.90;33.95;99677.78;10403471;28;20134;-78
2022/06/03 17:09:04;;;;;;;5.53;2.20;;;;;;;26.82;34.35;99683.31;10413088;28;20490;-79
2022/06/03 17:14:26;;;;;;;5.53;2.20;;;;;;;26.67;35.05;99688.00;10412403;28;20483;-78
2022/06/03 17:19:28;;;;;;;4.63;1.85;;;;;;;26.68;34.93;99684.31;10412650;28;20842;-78
2022/06/03 17:24:31;;;;;;;5.25;2.10;;;;;;;26.61;35.53;99694.19;10413576;28;20191;-78
2022/06/03 17:29:39;;;;;;;3.80;2.38;;;;;;;26.43;35.17;99685.81;10414466;28;20052;-78
2022/06/03 17:34:46;;;;;;;4.60;1.85;;;;;;;26.30;35.59;99694.63;10408338;28;20529;-78
2022/06/03 17:40:03;;;;;;;5.20;2.00;;;;;;;26.25;35.81;99698.94;10409994;28;20076;-78
2022/06/03 17:45:27;;;;;;;4.22;2.17;;;;;;;26.08;35.75;99690.38;10410270;28;20210;-77
2022/06/03 17:51:02;;;;;;;4.95;2.00;;;;;;;25.87;36.77;99691.22;10408359;28;20498;-77
2022/06/03 17:56:18;;;;;;;4.80;2.00;;;;;;;25.80;37.02;99701.09;10398456;28;20132;-77
2022/06/03 18:02:06;;;;;;;3.97;2.10;;;;;;;25.63;40.28;99707.72;10397961;28;20426;-78
2022/06/03 18:07:25;;;;;;;5.13;2.20;;;;;;;25.35;41.92;99712.22;10399673;28;20504;-77
2022/06/03 18:12:32;;;;;;;4.85;2.00;;;;;;;25.07;41.12;99705.94;10399108;28;20530;-77
2022/06/03 18:17:59;;;;;;;3.78;2.20;;;;;;;24.85;41.67;99717.63;10403841;28;20053;-77
2022/06/03 18:23:19;;;;;;;4.88;2.05;;;;;;;24.68;41.94;99724.16;10402341;28;20126;-75
2022/06/03 18:28:30;;;;;;;;;;;;;;;24.17;42.41;99718.78;10407350;28;20226;-76
2022/06/03 18:33:48;;;;;;;4.55;2.30;;;;;;;24.42;42.42;99718.50;10405196;28;20396;-76
2022/06/03 18:39:16;;;;;;;5.78;2.70;;;;;;;24.41;43.21;99714.97;10403856;28;20150;-76
2022/06/03 18:44:39;;;;;;;5.68;2.20;;;;;;;24.15;44.13;99717.28;10406281;28;20072;-76
2022/06/03 18:50:00;;;;;;;4.63;2.45;;;;;;;24.02;44.43;99722.41;10412213;28;20510;-76
2022/06/03 18:55:37;;;;;;;2.97;2.10;;;;;;;23.95;44.83;99727.66;10406734;28;20049;-76
2022/06/03 19:00:55;;;;;;;5.07;2.65;;;;;;;23.82;44.96;99738.13;10410113;28;20415;-76
2022/06/03 19:06:32;;;;;;;4.30;2.50;;;;;;;23.64;45.55;99728.78;10406281;28;20162;-76
2022/06/03 19:11:44;;;;;;;3.80;2.28;;;;;;;23.34;46.18;99734.00;10405760;28;20526;-76
2022/06/03 19:16:52;;;;;;;3.25;2.20;;;;;;;23.37;45.92;99733.63;10406736;28;20140;-76
2022/06/03 19:22:16;;;;;;;5.65;2.33;;;;;;;23.20;46.50;99737.44;10409105;28;20514;-76
2022/06/03 19:27:27;;;;;;;5.75;2.78;;;;;;;23.03;46.87;99745.69;10421735;28;20127;-76
2022/06/03 19:32:33;;;;;;;4.28;2.75;;;;;;;22.91;47.40;99752.44;10408006;28;20187;-76
2022/06/03 19:37:54;;;;;;;4.97;3.10;;;;;;;22.78;48.12;99746.84;10410749;28;20052;-76
2022/06/03 19:43:13;;;;;;;7.15;2.58;;;;;;;22.69;48.55;99754.00;10415127;28;20048;-76
2022/06/03 19:48:46;;;;;;;4.78;2.75;;;;;;;22.62;48.56;99764.53;10410927;28;20061;-77
2022/06/03 19:53:54;;;;;;;4.22;2.58;;;;;;;22.60;48.43;99766.53;10417650;28;20144;-77
2022/06/03 19:58:59;;;;;;;8.60;3.25;;;;;;;22.48;48.68;99767.91;10402843;28;20126;-77
2022/06/03 20:04:21;;;;;;;5.25;2.80;;;;;;;22.37;49.02;99772.78;10430290;28;20073;-77
2022/06/03 20:09:41;;;;;;;4.93;2.70;;;;;;;22.35;49.09;99783.59;10412798;28;20077;-78
2022/06/03 20:14:55;;;;;;;3.97;2.83;;;;;;;22.27;49.31;99780.13;10427870;28;20132;-79
2022/06/03 20:20:01;;;;;;;4.93;2.58;;;;;;;22.24;49.14;99791.13;10430413;28;20049;-78
2022/06/03 20:25:18;;;;;;;9.18;3.05;;;;;;;22.13;49.69;99789.63;10431315;28;20052;-82
2022/06/03 20:30:29;;;;;;;5.43;3.00;;;;;;;21.85;50.37;99793.63;10429366;28;20080;-79
2022/06/03 20:35:55;;;;;;;5.20;3.10;;;;;;;21.89;50.47;99802.94;10427783;28;20061;-78
2022/06/03 20:41:35;;;;;;;6.40;3.38;;;;;;;21.46;51.07;99809.38;10426232;28;20150;-78
2022/06/03 20:47:06;;;;;;;7.22;3.15;;;;;;;21.45;51.42;99818.38;10425829;28;20103;-79
2022/06/03 20:52:09;;;;;;;5.57;3.00;;;;;;;21.61;51.12;99825.56;10443238;28;20052;-78
2022/06/03 20:57:15;;;;;;;7.93;3.35;;;;;;;21.52;51.39;99823.84;10428192;28;20049;-78
2022/06/03 21:02:17;;;;;;;7.82;4.95;;;;;;;21.47;51.29;99832.34;10428979;28;20506;-78
2022/06/03 21:12:50;;;;;;;6.00;3.50;;;;;;;21.36;51.46;99837.13;10426042;28;20469;-78
2022/06/03 21:17:52;;;;;;;5.45;3.20;;;;;;;21.33;51.63;99843.63;10427785;28;20490;-79
2022/06/03 21:22:59;;;;;;;5.68;3.00;;;;;;;21.32;51.90;99844.63;10428055;28;20077;-79
2022/06/03 21:28:02;;;;;;;7.43;3.63;;;;;;;21.18;52.13;99836.38;10428968;28;20064;-79
2022/06/03 21:33:12;;;;;;;6.35;3.28;;;;;;;20.98;52.65;99830.50;10424233;28;20111;-79
2022/06/03 21:38:35;;;;;;;3.97;3.03;;;;;;;20.92;53.29;99836.47;10425460;28;20044;-78
2022/06/03 21:43:43;;;;;;;5.82;3.10;;;;;;;20.92;53.16;99849.75;10440886;28;20044;-78
2022/06/03 21:48:57;;;;;;;5.18;3.17;;;;;;;20.88;53.12;99846.59;10419591;28;20052;-78
2022/06/03 21:54:05;;;;;;;6.35;3.03;;;;;;;20.78;53.37;99858.34;10426819;28;20403;-79
2022/06/03 21:59:56;;;;;;;5.35;3.13;;;;;;;20.78;53.12;99863.66;10429103;28;20130;-80
2022/06/03 22:05:00;;;;;;;5.57;3.22;;;;;;;20.70;53.15;99856.44;10337721;28;20136;-80
2022/06/03 22:10:07;;;;;;;4.20;3.22;;;;;;;20.47;53.95;99849.97;10422811;28;21114;-78
2022/06/03 22:15:22;;;;;;;6.03;3.15;;;;;;;20.35;54.04;99853.88;10425047;28;20168;-79
2022/06/03 22:20:28;;;;;;;5.97;3.42;;;;;;;20.07;54.66;99866.44;10426698;28;20576;-79
2022/06/03 22:25:56;;;;;;;6.28;3.20;;;;;;;20.04;54.79;99866.75;10435308;28;20045;-80
2022/06/03 22:31:05;;;;;;;5.25;3.20;;;;;;;19.99;55.07;99881.50;10437028;28;20049;-80
2022/06/03 22:36:55;;;;;;;4.97;3.13;;;;;;;20.03;55.12;99883.66;10433339;28;20057;-80
2022/06/03 22:42:47;;;;;;;6.53;3.13;;;;;;;20.02;54.98;99873.22;10435551;28;20096;-80
2022/06/03 22:47:51;;;;;;;5.75;3.58;;;;;;;19.80;55.40;99865.69;10400434;28;20143;-80
2022/06/03 22:52:53;;;;;;;5.20;3.35;;;;;;;19.63;55.79;99880.59;10433181;28;20132;-80
2022/06/03 22:57:56;;;;;;;6.55;3.30;;;;;;;19.70;55.96;99894.09;10434954;28;20890;-80
2022/06/03 23:02:59;;;;;;;4.72;3.22;;;;;;;19.57;56.37;99883.00;10431982;28;20138;-80
2022/06/03 23:08:01;;;;;;;5.60;3.28;;;;;;;19.56;56.25;99890.16;10432614;28;20375;-80
2022/06/03 23:13:05;;;;;;;6.07;3.58;;;;;;;19.73;55.77;99891.13;10431492;28;20587;-80
2022/06/03 23:18:07;;;;;;;9.48;3.40;;;;;;;19.70;56.07;99883.50;10431516;28;20486;-80
2022/06/03 23:23:27;;;;;;;6.13;3.47;;;;;;;19.48;56.96;99880.28;10433153;28;21154;-80
2022/06/03 23:28:30;;;;;;;5.25;3.60;;;;;;;19.60;56.30;99880.06;10434611;28;20114;-81
2022/06/03 23:33:33;;;;;;;4.63;3.63;;;;;;;19.48;56.82;99877.63;10432280;28;20477;-80
2022/06/03 23:38:35;;;;;;;8.20;3.40;;;;;;;19.34;57.10;99875.47;10431856;28;20265;-80
2022/06/03 23:48:58;;;;;;;5.63;3.55;;;;;;;19.52;56.63;99862.25;10427048;28;20153;-80
2022/06/03 23:54:00;;;;;;;5.28;3.22;;;;;;;19.59;56.61;99881.88;10426800;28;20076;-79
2022/06/03 23:59:03;;;;;;;4.90;3.42;;;;;;;19.55;56.67;99877.03;10427986;28;20211;-78
